Time;durP1;ratioP1;P1;durP2;ratioP2;P2;SDS_P1;SDS_P2;PMS_P1;PMS_P2;Temp;Humidity;BMP_temperature;BMP_pressure;BME280_temperature;BME280_humidity;BME280_pressure;Samples;Min_cycle;Max_cycle;Signal;HPM_P1;HPM_P2
2023/04/13 00:00:41;;;;;;;0.70;0.30;;;;;;;;;;4990060;28;20033;-84
2023/04/13 00:03:10;;;;;;;0.50;0.43;;;;;;;;;;4994220;28;20034;-84
2023/04/13 00:05:37;;;;;;;0.52;0.35;;;;;;;;;;4997389;28;20030;-84
2023/04/13 00:08:03;;;;;;;0.55;0.25;;;;;;;;;;4997562;28;20117;-84
2023/04/13 00:10:35;;;;;;;0.20;0.20;;;;;;;;;;5000329;28;20034;-83
2023/04/13 00:13:04;;;;;;;1.05;0.30;;;;;;;;;;5002095;28;20136;-84
2023/04/13 00:15:31;;;;;;;0.98;0.20;;;;;;;;;;4991290;28;20019;-84
2023/04/13 00:17:57;;;;;;;0.20;0.10;;;;;;;;;;4997595;28;21308;-84
2023/04/13 00:20:23;;;;;;;0.52;0.22;;;;;;;;;;4995512;28;20546;-83
2023/04/13 00:22:50;;;;;;;0.30;0.20;;;;;;;;;;4996763;28;20132;-84
2023/04/13 00:25:16;;;;;;;0.75;0.35;;;;;;;;;;4995094;28;20108;-85
2023/04/13 00:27:42;;;;;;;0.30;0.17;;;;;;;;;;4991775;28;20121;-83
2023/04/13 00:30:17;;;;;;;0.40;0.17;;;;;;;;;;5000103;28;20026;-83
2023/04/13 00:32:44;;;;;;;0.88;0.32;;;;;;;;;;5000497;28;20092;-84
2023/04/13 00:35:11;;;;;;;1.17;0.30;;;;;;;;;;4989980;28;20037;-83
2023/04/13 00:37:37;;;;;;;1.08;0.52;;;;;;;;;;4996112;28;20545;-84
2023/04/13 00:40:07;;;;;;;0.15;0.15;;;;;;;;;;4987917;28;20072;-84
2023/04/13 00:42:33;;;;;;;0.32;0.20;;;;;;;;;;4992369;28;20030;-84
2023/04/13 00:44:59;;;;;;;0.40;0.40;;;;;;;;;;4998312;28;20022;-84
2023/04/13 00:47:31;;;;;;;0.35;0.20;;;;;;;;;;4989308;28;20037;-84
2023/04/13 00:49:58;;;;;;;1.40;0.38;;;;;;;;;;5002446;28;20033;-84
2023/04/13 00:52:24;;;;;;;0.40;0.30;;;;;;;;;;4995557;28;20054;-83
2023/04/13 00:54:50;;;;;;;0.15;0.13;;;;;;;;;;4997982;28;20671;-84
2023/04/13 00:57:16;;;;;;;9.43;3.50;;;;;;;;;;4999938;28;20112;-85
2023/04/13 00:59:43;;;;;;;21.77;8.30;;;;;;;;;;5003164;28;20560;-84
2023/04/13 01:02:09;;;;;;;19.50;8.93;;;;;;;;;;4996329;28;20033;-84
2023/04/13 01:04:36;;;;;;;4.47;1.48;;;;;;;;;;5003851;28;20117;-84
2023/04/13 01:07:25;;;;;;;1.80;1.17;;;;;;;;;;4994580;28;20038;-84
2023/04/13 01:09:55;;;;;;;1.65;0.80;;;;;;;;;;4996943;28;20564;-84
2023/04/13 01:12:23;;;;;;;1.83;0.63;;;;;;;;;;4996326;28;20168;-84
2023/04/13 01:15:00;;;;;;;1.75;0.40;;;;;;;;;;5003626;28;20528;-84
2023/04/13 01:17:28;;;;;;;0.75;0.32;;;;;;;;;;4999713;28;20093;-85
2023/04/13 01:19:57;;;;;;;0.63;0.45;;;;;;;;;;4999084;28;20372;-84
2023/04/13 01:22:26;;;;;;;0.93;0.50;;;;;;;;;;4998118;28;20030;-84
2023/04/13 01:25:11;;;;;;;0.63;0.40;;;;;;;;;;5000321;28;20504;-85
2023/04/13 01:27:46;;;;;;;0.50;0.30;;;6.50;99.90;;;;;;4998219;28;20045;-84
2023/04/13 01:30:13;;;;;;;0.70;0.30;;;;;;;;;;4997595;28;20061;-85
2023/04/13 01:32:41;;;;;;;0.80;0.30;;;;;;;;;;4999593;28;20188;-84
2023/04/13 01:35:09;;;;;;;2.47;0.90;;;;;;;;;;5005391;28;20039;-85
2023/04/13 01:37:35;;;;;;;0.50;0.43;;;;;;;;;;4992361;28;20046;-84
2023/04/13 01:40:10;;;;;;;2.35;0.93;;;;;;;;;;4991455;28;20034;-84
2023/04/13 01:42:36;;;;;;;0.93;0.50;;;;;;;;;;4998403;28;20045;-84
2023/04/13 01:45:04;;;;;;;1.85;0.40;;;;;;;;;;4994032;28;20033;-84
2023/04/13 01:47:30;;;;;;;0.80;0.20;;;;;;;;;;5005938;28;20065;-84
2023/04/13 01:50:02;;;;;;;0.70;0.25;;;;;;;;;;4999423;28;20030;-83
2023/04/13 01:52:31;;;;;;;0.40;0.30;;;;;;;;;;5016149;28;20042;-83
2023/04/13 01:54:58;;;;;;;0.22;0.10;;;;;;;;;;5011484;28;20041;-84
2023/04/13 01:57:24;;;;;;;2.72;1.33;;;;;;;;;;4998871;28;20030;-84
2023/04/13 01:59:50;;;;;;;5.43;3.13;;;;;;;;;;4994984;28;20087;-84
2023/04/13 02:02:16;;;;;;;1.83;1.17;;;;;;;;;;4993413;28;20034;-84
2023/04/13 02:04:42;;;;;;;2.92;0.93;;;;;;;;;;5004116;28;20117;-84
2023/04/13 02:07:09;;;;;;;4.47;0.43;;;;;;;;;;4987795;28;20482;-84
2023/04/13 02:09:35;;;;;;;0.85;0.38;;;;;;;;;;4997402;28;20163;-83
2023/04/13 02:12:02;;;;;;;2.58;1.13;;;;;;;;;;4993486;28;20050;-84
2023/04/13 02:14:28;;;;;;;1.23;0.57;;;;;;;;;;4989190;28;20690;-83
2023/04/13 02:16:54;;;;;;;1.95;0.82;;;;;;;;;;4995313;28;20338;-83
2023/04/13 02:19:20;;;;;;;0.38;0.28;;;;;;;;;;4994601;28;20026;-84
2023/04/13 02:21:46;;;;;;;1.38;0.55;;;;;;;;;;4988768;28;20688;-84
2023/04/13 02:24:13;;;;;;;1.13;0.30;;;;;;;;;;4998288;28;20026;-84
2023/04/13 02:26:39;;;;;;;0.60;0.40;;;;;;;;;;4995327;28;20029;-84
2023/04/13 02:29:06;;;;;;;0.47;0.17;;;;;;;;;;5000545;28;20026;-83
2023/04/13 02:31:32;;;;;;;1.75;0.47;;;;;;;;;;4997096;28;20522;-83
2023/04/13 02:33:58;;;;;;;0.28;0.20;;;;;;;;;;4991570;28;20072;-83
2023/04/13 02:36:24;;;;;;;0.52;0.30;;;;;;;;;;4997367;28;20030;-83
2023/04/13 02:38:51;;;;;;;0.10;0.10;;;;;;;;;;4992076;28;20104;-83
2023/04/13 02:41:21;;;;;;;3.92;1.90;;;;;;;;;;4990792;28;20026;-83
2023/04/13 02:43:49;;;;;;;3.15;1.08;;;;;;;;;;5017587;28;20057;-84
2023/04/13 02:46:15;;;;;;;3.33;1.17;;;;;;;;;;4992072;28;20048;-83
2023/04/13 02:48:41;;;;;;;7.40;0.93;;;;;;;;;;4997665;28;20025;-83
2023/04/13 02:51:07;;;;;;;1.77;0.32;;;;;;;;;;4998335;28;20029;-85
2023/04/13 02:53:45;;;;;;;1.10;0.30;;;;;;;;;;4995216;28;20080;-85
2023/04/13 02:56:11;;;;;;;1.95;0.50;;;;;;;;;;4990681;28;20398;-84
2023/04/13 02:58:37;;;;;;;1.65;0.47;;;;;;;;;;5000505;28;20036;-85
2023/04/13 03:01:03;;;;;;;1.08;0.77;;;;;;;;;;4995112;28;20030;-85
2023/04/13 03:03:29;;;;;;;0.10;0.10;;;;;;;;;;4994872;28;20585;-85
2023/04/13 03:05:55;;;;;;;0.90;0.38;;;;;;;;;;4999512;28;20667;-84
2023/04/13 03:08:21;;;;;;;0.10;0.10;;;;;;;;;;4998531;28;20419;-84
2023/04/13 03:10:47;;;;;;;0.90;0.50;;;;;;;;;;4991438;28;20108;-85
2023/04/13 03:13:13;;;;;;;1.13;0.50;;;;;;;;;;4990678;28;20394;-84
2023/04/13 03:15:40;;;;;;;0.10;0.10;;;;;;;;;;5009957;28;20145;-83
2023/04/13 03:18:06;;;;;;;0.75;0.10;;;;;;;;;;5012854;28;20033;-82
2023/04/13 03:20:33;;;;;;;1.27;0.32;;;;;;;;;;5007515;28;20033;-83
2023/04/13 03:23:00;;;;;;;0.10;0.10;;;;;;;;;;4995525;28;20057;-82
2023/04/13 03:25:26;;;;;;;0.90;0.30;;;;;;;;;;4988144;28;20041;-82
2023/04/13 03:27:52;;;;;;;0.22;0.22;;;;;;;;;;4991601;28;21310;-82
2023/04/13 03:30:18;;;;;;;0.70;0.20;;;;;;;;;;4992659;28;20026;-82
2023/04/13 03:32:44;;;;;;;1.92;0.10;;;;;;;;;;4995887;28;20490;-83
2023/04/13 03:35:10;;;;;;;0.32;0.13;;;;;;;;;;4998692;28;20029;-83
2023/04/13 03:37:41;;;;;;;0.68;0.30;;;;;;;;;;4996775;28;20396;-82
2023/04/13 03:40:09;;;;;;;1.42;0.25;;;;;;;;;;4983994;28;20029;-83
2023/04/13 03:42:35;;;;;;;0.10;0.10;;;;;;;;;;4993092;28;20053;-83
2023/04/13 03:45:01;;;;;;;0.68;0.20;;;;;;;;;;4988684;28;20034;-83
2023/04/13 03:47:27;;;;;;;0.20;0.20;;;;;;;;;;4982277;28;20030;-84
2023/04/13 03:49:53;;;;;;;2.95;0.38;;;;;;;;;;4997115;28;20037;-84
2023/04/13 03:52:19;;;;;;;3.50;0.40;;;;;;;;;;4990457;28;20443;-84
2023/04/13 03:54:45;;;;;;;1.75;0.20;;;;;;;;;;4992760;28;20384;-84
2023/04/13 03:57:11;;;;;;;1.25;0.15;;;;;;;;;;4986318;28;20038;-82
2023/04/13 03:59:37;;;;;;;0.22;0.22;;;;;;;;;;4989660;28;20635;-83
2023/04/13 04:02:03;;;;;;;0.10;0.10;;;;;;;;;;4991034;28;20045;-83
2023/04/13 04:04:29;;;;;;;1.08;0.30;;;;;;;;;;4994153;28;20389;-83
2023/04/13 04:06:56;;;;;;;1.58;0.43;;;;;;;;;;4997428;28;20718;-83
2023/04/13 04:09:23;;;;;;;0.25;0.20;;;;;;;;;;5001079;28;20116;-84
2023/04/13 04:11:49;;;;;;;0.35;0.30;;;;;;;;;;4994064;28;20021;-83
2023/04/13 04:14:15;;;;;;;0.80;0.30;;;;;;;;;;4998968;28;20612;-84
2023/04/13 04:16:41;;;;;;;4.53;0.45;;;;;;;;;;4992653;28;20053;-84
2023/04/13 04:19:07;;;;;;;0.45;0.22;;;;;;;;;;4995323;28;20152;-82
2023/04/13 04:21:34;;;;;;;2.30;0.17;;;;;;;;;;4981697;28;20057;-83
2023/04/13 04:24:01;;;;;;;0.13;0.13;;;;;;;;;;5004619;28;20029;-83
2023/04/13 04:26:28;;;;;;;0.28;0.28;;;;;;;;;;4992090;28;20045;-84
2023/04/13 04:29:00;;;;;;;0.25;0.10;;;;;;;;;;4997645;28;20026;-83
2023/04/13 04:31:26;;;;;;;1.27;0.50;;;;;;;;;;4993591;28;20034;-83
2023/04/13 04:33:53;;;;;;;0.10;0.10;;;;;;;;;;4993821;28;20049;-82
2023/04/13 04:36:19;;;;;;;1.50;0.28;;;;;;;;;;5002993;28;20030;-83
2023/04/13 04:38:46;;;;;;;7.32;0.30;;;;;;;;;;4997910;28;20053;-83
2023/04/13 04:41:12;;;;;;;1.08;0.20;;;;;;;;;;5002189;28;20030;-81
2023/04/13 04:43:39;;;;;;;0.22;0.20;;;;;;;;;;5003436;28;20091;-82
2023/04/13 04:46:06;;;;;;;0.63;0.17;;;;;;;;;;4999455;28;20033;-81
2023/04/13 04:48:32;;;;;;;4.97;0.20;;;;;;;;;;4995692;28;20033;-82
2023/04/13 04:50:58;;;;;;;0.30;0.30;;;;;;;;;;4995887;28;20056;-82
2023/04/13 04:53:25;;;;;;;2.22;0.30;;;;;;;;;;5000826;28;20046;-82
2023/04/13 04:55:51;;;;;;;3.50;0.30;;;;;;;;;;5006267;28;20053;-81
2023/04/13 04:58:18;;;;;;;2.25;0.40;;;;;;;;;;4997842;28;20042;-81
2023/04/13 05:00:44;;;;;;;0.63;0.20;;;;;;;;;;4996626;28;20026;-81
2023/04/13 05:03:10;;;;;;;1.63;0.38;;;;;;;;;;5003754;28;20022;-80
2023/04/13 05:05:36;;;;;;;0.80;0.40;;;;;;;;;;5003125;28;20125;-83
2023/04/13 05:08:02;;;;;;;0.60;0.30;;;;;;;;;;5000237;28;20054;-81
2023/04/13 05:10:28;;;;;;;2.38;0.70;;;;;;;;;;5001539;28;20094;-82
2023/04/13 05:12:55;;;;;;;0.63;0.40;;;;;;;;;;5001591;28;20505;-82
2023/04/13 05:15:21;;;;;;;0.22;0.20;;;;;;;;;;5001789;28;20108;-82
2023/04/13 05:17:49;;;;;;;1.13;0.25;;;;;;;;;;4994559;28;20034;-81
2023/04/13 05:20:16;;;;;;;1.45;0.13;;;;;;;;;;4996266;28;20180;-79
2023/04/13 05:22:42;;;;;;;4.10;0.40;;;;;;;;;;4985039;28;20767;-82
2023/04/13 05:25:08;;;;;;;2.58;1.08;;;;;;;;;;4984436;28;20026;-81
2023/04/13 05:27:34;;;;;;;19.67;3.13;;;7.80;99.90;;;;;;4993684;28;20026;-80
2023/04/13 05:30:00;;;;;;;4.15;1.58;;;;;;;;;;5001493;28;20026;-81
2023/04/13 05:32:26;;;;;;;24.83;6.32;;;;;;;;;;4996770;28;20037;-80
2023/04/13 05:34:52;;;;;;;13.90;3.58;;;;;;;;;;4991296;28;20037;-82
2023/04/13 05:37:18;;;;;;;5.88;1.90;;;;;;;;;;5010062;28;20039;-81
2023/04/13 05:39:45;;;;;;;3.47;1.20;;;;;;;;;;5000816;28;20083;-81
2023/04/13 05:42:11;;;;;;;1.73;0.68;;;;;;;;;;4998020;28;20037;-81
2023/04/13 05:44:37;;;;;;;1.00;0.57;;;;;;;;;;4995152;28;20552;-81
2023/04/13 05:47:03;;;;;;;3.92;0.65;;;;;;;;;;5002303;28;20026;-80
2023/04/13 05:49:29;;;;;;;1.35;0.50;;;;;;;;;;4998699;28;20089;-81
2023/04/13 05:51:55;;;;;;;2.75;0.30;;;;;;;;;;4998577;28;20045;-82
2023/04/13 05:54:21;;;;;;;0.30;0.30;;;;;;;;;;5000198;28;20457;-82
2023/04/13 05:56:47;;;;;;;4.15;0.30;;;;;;;;;;5002565;28;20045;-82
2023/04/13 05:59:14;;;;;;;13.98;0.93;;;;;;;;;;4994436;28;20022;-81
2023/04/13 06:01:40;;;;;;;0.90;0.22;;;;;;;;;;4985812;28;20030;-83
2023/04/13 06:04:08;;;;;;;3.33;0.35;;;;;;;;;;4996619;28;20044;-82
2023/04/13 06:06:34;;;;;;;7.15;0.40;;;;;;;;;;5005256;28;20034;-82
2023/04/13 06:09:01;;;;;;;2.83;0.90;;;;;;;;;;4998293;28;20048;-83
2023/04/13 06:11:27;;;;;;;0.17;0.15;;;;;;;;;;4995562;28;20038;-82
2023/04/13 06:13:53;;;;;;;5.72;1.00;;;;;;;;;;4994806;28;20022;-82
2023/04/13 06:16:19;;;;;;;1.15;0.65;;;;;;;;;;4996546;28;20644;-80
2023/04/13 06:18:45;;;;;;;9.63;1.77;;;;;;;;;;5000010;28;20112;-82
2023/04/13 06:21:11;;;;;;;9.52;2.15;;;;;;;;;;5002125;28;20482;-82
2023/04/13 06:23:37;;;;;;;6.55;1.88;;;;;;;;;;4993167;28;20026;-82
2023/04/13 06:26:03;;;;;;;4.30;1.35;;;;;;;;;;4997556;28;20057;-80
2023/04/13 06:28:30;;;;;;;3.65;1.55;;;;;;;;;;4991727;28;20682;-82
2023/04/13 06:30:56;;;;;;;5.07;0.68;;;;;;;;;;4999812;28;20037;-82
2023/04/13 06:33:22;;;;;;;1.50;0.47;;;;;;;;;;4998589;28;20482;-81
2023/04/13 06:35:50;;;;;;;0.60;0.30;;;;;;;;;;4998951;28;20032;-81
2023/04/13 06:38:16;;;;;;;4.75;0.80;;;;;;;;;;4989440;28;20058;-82
2023/04/13 06:40:42;;;;;;;1.20;0.30;;;;;;;;;;4992604;28;20109;-82
2023/04/13 06:43:08;;;;;;;0.10;0.10;;;;;;;;;;4992646;28;20646;-82
2023/04/13 06:45:34;;;;;;;0.63;0.30;;;;;;;;;;4993934;28;20025;-82
2023/04/13 06:48:01;;;;;;;3.15;0.57;;;;;;;;;;4994972;28;20113;-81
2023/04/13 06:50:27;;;;;;;2.50;0.20;;;;;;;;;;4989504;28;20061;-82
2023/04/13 06:52:53;;;;;;;3.22;0.20;;;;;;;;;;4994743;28;20106;-81
2023/04/13 06:55:19;;;;;;;0.20;0.20;;;;;;;;;;4998956;28;20558;-81
2023/04/13 06:57:45;;;;;;;0.52;0.28;;;;;;;;;;4991450;28;20501;-83
2023/04/13 07:00:13;;;;;;;2.42;0.30;;;;;;;;;;4994173;28;20040;-82
2023/04/13 07:02:39;;;;;;;11.05;0.45;;;;;;;;;;4993738;28;20044;-81
2023/04/13 07:05:06;;;;;;;9.63;0.60;;;;;;;;;;4978197;28;20025;-83
2023/04/13 07:07:32;;;;;;;5.53;0.40;;;;;;;;;;4997027;28;20130;-82
2023/04/13 07:09:58;;;;;;;2.72;0.40;;;;;;;;;;4994259;28;20033;-82
2023/04/13 07:12:24;;;;;;;0.70;0.20;;;;;;;;;;4991636;28;20042;-82
2023/04/13 07:14:50;;;;;;;0.80;0.30;;;;;;;;;;4996934;28;20029;-82
2023/04/13 07:17:17;;;;;;;1.80;0.50;;;;;;;;;;4987900;28;20030;-82
2023/04/13 07:19:46;;;;;;;1.42;0.30;;;;;;;;;;4978593;28;20657;-83
2023/04/13 07:22:12;;;;;;;1.08;0.20;;;;;;;;;;4988700;28;20041;-83
2023/04/13 07:24:38;;;;;;;0.63;0.20;;;;;;;;;;5000836;28;20029;-82
2023/04/13 07:27:04;;;;;;;2.00;0.88;;;;;;;;;;4990643;28;20422;-82
2023/04/13 07:29:30;;;;;;;2.65;0.38;;;;;;;;;;5000984;28;20045;-82
2023/04/13 07:32:01;;;;;;;4.82;0.50;;;;;;;;;;5002085;28;20042;-83
2023/04/13 07:34:27;;;;;;;2.08;0.20;;;;;;;;;;5006423;28;20526;-83
2023/04/13 07:36:53;;;;;;;13.05;1.15;;;;;;;;;;5007659;28;20165;-82
2023/04/13 07:39:19;;;;;;;1.02;0.52;;;;;;;;;;5016086;28;20150;-80
2023/04/13 07:41:46;;;;;;;1.65;0.45;;;;;;;;;;5019570;28;20037;-82
2023/04/13 07:44:13;;;;;;;0.73;0.35;;;;;;;;;;4997666;28;20033;-83
2023/04/13 07:46:40;;;;;;;3.65;0.40;;;;;;;;;;4994660;28;20888;-82
2023/04/13 07:49:06;;;;;;;1.98;0.22;;;;;;;;;;5000868;28;20030;-84
2023/04/13 07:51:33;;;;;;;8.10;0.65;;;;;;;;;;5000337;28;20044;-82
2023/04/13 07:53:59;;;;;;;3.80;0.40;;;;;;;;;;4991017;28;20026;-82
2023/04/13 07:56:26;;;;;;;2.33;0.30;;;;;;;;;;4989392;28;20065;-83
2023/04/13 07:58:51;;;;;;;2.25;0.45;;;;;;;;;;5001620;28;20061;-82
2023/04/13 08:01:18;;;;;;;9.23;0.57;;;;;;;;;;4994588;28;20069;-83
2023/04/13 08:03:44;;;;;;;1.48;0.63;;;;;;;;;;5000410;28;20546;-84
2023/04/13 08:06:10;;;;;;;5.65;0.50;;;;;;;;;;4997198;28;20025;-83
2023/04/13 08:08:36;;;;;;;7.97;0.75;;;;;;;;;;5001484;28;20505;-84
2023/04/13 08:11:02;;;;;;;2.75;0.70;;;;;;;;;;4987289;28;20030;-82
2023/04/13 08:13:28;;;;;;;7.43;0.55;;;;;;;;;;4992721;28;20053;-82
2023/04/13 08:15:56;;;;;;;1.33;0.50;;;;;;;;;;4992779;28;20053;-82
2023/04/13 08:18:22;;;;;;;6.60;1.30;;;;;;;;;;5000639;28;20033;-82
2023/04/13 08:20:48;;;;;;;2.88;0.55;;;;;;;;;;4995939;28;20041;-82
2023/04/13 08:23:14;;;;;;;5.97;0.57;;;;;;;;;;5001156;28;20521;-82
2023/04/13 08:25:41;;;;;;;4.70;0.57;;;;;;;;;;4992001;28;20053;-83
2023/04/13 08:28:08;;;;;;;4.00;1.05;;;;;;;;;;4993814;28;20037;-84
2023/04/13 08:30:34;;;;;;;3.53;0.32;;;10.60;99.90;;;;;;4996084;28;20080;-82
2023/04/13 08:33:01;;;;;;;0.85;0.35;;;;;;;;;;5001563;28;20508;-83
2023/04/13 08:35:27;;;;;;;1.08;0.40;;;;;;;;;;5001798;28;20624;-82
2023/04/13 08:37:53;;;;;;;1.90;0.50;;;;;;;;;;4991561;28;20098;-83
2023/04/13 08:40:20;;;;;;;1.65;0.50;;;;;;;;;;4993341;28;20030;-82
2023/04/13 08:42:46;;;;;;;1.83;0.50;;;;;;;;;;5004838;28;20130;-83
2023/04/13 08:45:13;;;;;;;1.98;0.73;;;;;;;;;;4995549;28;20165;-83
2023/04/13 08:47:39;;;;;;;2.63;0.57;;;;;;;;;;4998837;28;20034;-83
2023/04/13 08:50:06;;;;;;;5.53;0.60;;;10.60;99.90;;;;;;4988174;28;20032;-82
2023/04/13 08:52:33;;;;;;;3.83;0.55;;;;;;;;;;4999658;28;20052;-83
2023/04/13 08:55:02;;;;;;;2.47;0.70;;;;;;;;;;4990703;28;20030;-82
2023/04/13 08:57:29;;;;;;;5.75;2.10;;;;;;;;;;4986787;28;20504;-84
2023/04/13 08:59:56;;;;;;;13.55;1.83;;;;;;;;;;4976293;28;20053;-84
2023/04/13 09:02:27;;;;;;;6.18;0.82;;;10.80;99.90;;;;;;4988816;28;20033;-82
2023/04/13 09:04:53;;;;;;;7.60;0.57;;;;;;;;;;5001784;28;20037;-84
2023/04/13 09:07:25;;;;;;;3.05;0.55;;;;;;;;;;4995437;28;20034;-82
2023/04/13 09:09:51;;;;;;;0.57;0.22;;;;;;;;;;4994384;28;20037;-82
2023/04/13 09:12:18;;;;;;;4.25;0.60;;;;;;;;;;5004031;28;20038;-82
2023/04/13 09:14:44;;;;;;;5.78;0.47;;;;;;;;;;4993982;28;20033;-82
2023/04/13 09:17:09;;;;;;;0.73;0.40;;;;;;;;;;5004582;28;20025;-80
2023/04/13 09:19:36;;;;;;;2.03;0.63;;;;;;;;;;5004525;28;20265;-80
2023/04/13 09:22:12;;;;;;;5.03;1.45;;;;;;;;;;4994900;28;20034;-81
2023/04/13 09:24:39;;;;;;;1.80;0.70;;;10.50;99.90;;;;;;4988591;28;22379;-81
2023/04/13 09:27:05;;;;;;;5.28;1.35;;;;;;;;;;5000744;28;20056;-81
2023/04/13 09:29:32;;;;;;;2.50;0.95;;;;;;;;;;4993230;28;20502;-81
2023/04/13 09:31:58;;;;;;;3.70;0.55;;;;;;;;;;4998845;28;20110;-81
2023/04/13 09:34:28;;;;;;;1.10;0.38;;;;;;;;;;4995641;28;20112;-80
2023/04/13 09:36:54;;;;;;;6.10;0.65;;;;;;;;;;4996612;28;20034;-81
2023/04/13 09:39:26;;;;;;;2.97;0.40;;;;;;;;;;5005486;28;20022;-80
2023/04/13 09:41:53;;;;;;;2.80;0.52;;;;;;;;;;4988975;28;20040;-80
2023/04/13 09:44:23;;;;;;;4.70;0.70;;;;;;;;;;4989582;28;20030;-81
2023/04/13 09:46:58;;;;;;;4.80;0.47;;;;;;;;;;4994839;28;20034;-80
2023/04/13 09:49:24;;;;;;;0.85;0.45;;;;;;;;;;4998896;28;20038;-80
2023/04/13 09:51:50;;;;;;;3.50;0.43;;;;;;;;;;4997178;28;20084;-82
2023/04/13 09:54:35;;;;;;;6.85;1.33;;;;;;;;;;4998050;28;20026;-81
2023/04/13 09:57:03;;;;;;;3.20;0.85;;;;;;;;;;5002631;28;20050;-81
2023/04/13 09:59:29;;;;;;;3.78;0.40;;;;;;;;;;5000717;28;20040;-80
2023/04/13 10:01:55;;;;;;;2.38;1.30;;;;;;;;;;5002601;28;20025;-81
2023/04/13 10:04:21;;;;;;;2.33;0.65;;;;;;;;;;5001511;28;20076;-81
2023/04/13 10:06:47;;;;;;;3.60;0.60;;;;;;;;;;4996739;28;20076;-80
2023/04/13 10:09:14;;;;;;;3.40;0.70;;;;;;;;;;4998537;28;20678;-80
2023/04/13 10:11:49;;;;;;;3.72;0.65;;;;;;;;;;5004186;28;20036;-81
2023/04/13 10:14:21;;;;;;;3.50;0.63;;;;;;;;;;4994916;28;20494;-81
2023/04/13 10:17:07;;;;;;;4.90;0.60;;;;;;;;;;4999690;28;20033;-81
2023/04/13 10:19:48;;;;;;;1.50;0.50;;;10.70;99.90;;;;;;4995295;28;20502;-83
2023/04/13 10:22:15;;;;;;;5.65;1.17;;;;;;;;;;5001249;28;20038;-83
2023/04/13 10:24:41;;;;;;;6.32;1.02;;;;;;;;;;4994509;28;20076;-81
2023/04/13 10:27:11;;;;;;;5.95;0.65;;;;;;;;;;4990635;28;20081;-81
2023/04/13 10:29:36;;;;;;;9.30;0.95;;;11.80;99.90;;;;;;4994022;28;20033;-80
2023/04/13 10:32:03;;;;;;;3.38;0.75;;;;;;;;;;4997528;28;20132;-81
2023/04/13 10:34:30;;;;;;;4.82;0.75;;;;;;;;;;5003158;28;20718;-80
2023/04/13 10:36:57;;;;;;;3.88;0.50;;;11.50;99.90;;;;;;5014206;28;20057;-80
2023/04/13 10:39:28;;;;;;;1.95;0.55;;;12.50;99.90;;;;;;4989693;28;20034;-80
2023/04/13 10:42:00;;;;;;;6.43;0.60;;;;;;;;;;4993220;28;20025;-80
2023/04/13 10:44:27;;;;;;;4.05;0.65;;;;;;;;;;4992795;28;20061;-81
2023/04/13 10:46:53;;;;;;;11.20;1.20;;;;;;;;;;4999822;28;20042;-81
2023/04/13 10:49:29;;;;;;;5.30;0.43;;;;;;;;;;4999504;28;20040;-81
2023/04/13 10:51:55;;;;;;;3.47;0.52;;;;;;;;;;5003681;28;20076;-81
2023/04/13 10:54:22;;;;;;;1.05;0.40;;;;;;;;;;4997992;28;20264;-82
2023/04/13 10:56:58;;;;;;;1.23;0.60;;;;;;;;;;4995912;28;20033;-82
2023/04/13 10:59:45;;;;;;;3.78;0.77;;;;;;;;;;4988706;28;20033;-82
2023/04/13 11:02:13;;;;;;;6.93;0.55;;;;;;;;;;4990823;28;20084;-81
2023/04/13 11:04:46;;;;;;;6.03;0.55;;;;;;;;;;4997932;28;20426;-81
2023/04/13 11:07:13;;;;;;;2.65;0.20;;;;;;;;;;5003625;28;20034;-81
2023/04/13 11:09:39;;;;;;;6.72;0.60;;;11.80;99.90;;;;;;4995037;28;20061;-81
2023/04/13 11:12:07;;;;;;;6.18;0.70;;;;;;;;;;5005216;28;20140;-81
2023/04/13 11:14:35;;;;;;;2.10;0.45;;;;;;;;;;4991616;28;20108;-81
2023/04/13 11:17:01;;;;;;;2.97;0.57;;;;;;;;;;5010841;28;20401;-82
2023/04/13 11:19:33;;;;;;;6.45;0.88;;;;;;;;;;4997867;28;20787;-81
2023/04/13 11:22:00;;;;;;;1.90;0.40;;;;;;;;;;4994418;28;20145;-81
2023/04/13 11:24:26;;;;;;;7.88;0.65;;;;;;;;;;4999746;28;20045;-80
2023/04/13 11:26:56;;;;;;;2.55;0.20;;;;;;;;;;5001903;28;20046;-80
2023/04/13 11:29:22;;;;;;;1.38;0.40;;;;;;;;;;4994126;28;20034;-81
2023/04/13 11:31:48;;;;;;;4.38;0.50;;;;;;;;;;4993507;28;23247;-80
2023/04/13 11:34:25;;;;;;;1.73;0.40;;;13.30;99.90;;;;;;4992486;28;20134;-81
2023/04/13 11:37:01;;;;;;;1.13;0.28;;;13.90;99.90;;;;;;4994088;28;20033;-80
2023/04/13 11:39:27;;;;;;;0.20;0.20;;;;;;;;;;4996910;28;20108;-81
2023/04/13 11:41:55;;;;;;;6.93;1.25;;;;;;;;;;4998158;28;20578;-79
2023/04/13 11:44:22;;;;;;;2.50;0.40;;;;;;;;;;4997345;28;20030;-81
2023/04/13 11:46:50;;;;;;;3.28;0.80;;;;;;;;;;4993597;28;20057;-80
2023/04/13 11:49:16;;;;;;;3.83;0.63;;;;;;;;;;5009119;28;20044;-81
2023/04/13 11:51:42;;;;;;;1.08;0.25;;;;;;;;;;4996989;28;21498;-81
2023/04/13 11:54:08;;;;;;;1.55;0.30;;;;;;;;;;5004234;28;20227;-80
2023/04/13 11:56:34;;;;;;;1.83;0.30;;;;;;;;;;5009731;28;20762;-81
2023/04/13 11:59:01;;;;;;;1.55;0.40;;;;;;;;;;5000076;28;20034;-84
2023/04/13 12:01:27;;;;;;;2.05;0.40;;;;;;;;;;5003618;28;20048;-80
2023/04/13 12:03:53;;;;;;;3.53;0.88;;;;;;;;;;5008701;28;20141;-81
2023/04/13 12:06:19;;;;;;;4.22;0.60;;;;;;;;;;5002996;28;20665;-81
2023/04/13 12:08:45;;;;;;;2.55;0.40;;;;;;;;;;5004794;28;20053;-82
2023/04/13 12:11:12;;;;;;;6.80;0.45;;;;;;;;;;5013877;28;20034;-82
2023/04/13 12:13:44;;;;;;;4.20;0.65;;;13.20;99.90;;;;;;5002944;28;20037;-82
2023/04/13 12:16:14;;;;;;;2.53;0.60;;;;;;;;;;5010527;28;20098;-81
2023/04/13 12:18:44;;;;;;;2.33;0.50;;;;;;;;;;5006647;28;20038;-82
2023/04/13 12:21:15;;;;;;;4.38;1.27;;;13.00;99.90;;;;;;4993251;28;20025;-83
2023/04/13 12:23:50;;;;;;;3.28;0.60;;;;;;;;;;4990152;28;21496;-81
2023/04/13 12:26:18;;;;;;;2.72;0.40;;;12.30;99.90;;;;;;4990948;28;20053;-82
2023/04/13 12:28:45;;;;;;;2.55;0.55;;;12.80;99.90;;;;;;4998773;28;20080;-82
2023/04/13 12:31:11;;;;;;;3.80;0.30;;;;;;;;;;4991256;28;20048;-82
2023/04/13 12:33:37;;;;;;;0.75;0.40;;;;;;;;;;4998331;28;20524;-81
2023/04/13 12:36:09;;;;;;;8.45;0.68;;;;;;;;;;4994474;28;20108;-81
2023/04/13 12:38:36;;;;;;;4.75;0.20;;;;;;;;;;4995004;28;20483;-80
2023/04/13 12:41:02;;;;;;;6.03;0.47;;;;;;;;;;4984981;28;20811;-81
2023/04/13 12:43:28;;;;;;;2.75;0.45;;;13.60;99.90;;;;;;4998610;28;20048;-80
2023/04/13 12:45:54;;;;;;;3.22;0.43;;;;;;;;;;4990580;28;20608;-81
2023/04/13 12:48:24;;;;;;;3.88;0.45;;;;;;;;;;5001261;28;20060;-81
2023/04/13 12:50:50;;;;;;;1.85;0.32;;;;;;;;;;5001488;28;20030;-81
2023/04/13 12:53:16;;;;;;;1.35;0.63;;;;;;;;;;4998620;28;20049;-82
2023/04/13 12:55:42;;;;;;;1.33;0.32;;;;;;;;;;4993368;28;21036;-83
2023/04/13 12:58:09;;;;;;;3.10;0.80;;;13.80;99.90;;;;;;5009511;28;20038;-82
2023/04/13 13:00:34;;;;;;;1.45;0.65;;;;;;;;;;4999370;28;20127;-81
2023/04/13 13:03:03;;;;;;;1.50;0.52;;;12.80;99.90;;;;;;5011327;28;20029;-81
2023/04/13 13:05:29;;;;;;;1.92;0.28;;;;;;;;;;4998904;28;20516;-82
2023/04/13 13:07:55;;;;;;;0.90;0.30;;;;;;;;;;4997000;28;20033;-82
2023/04/13 13:10:21;;;;;;;1.77;0.32;;;;;;;;;;4992756;28;20053;-82
2023/04/13 13:12:47;;;;;;;2.45;0.30;;;;;;;;;;4979954;28;20508;-83
2023/04/13 13:15:14;;;;;;;1.50;0.20;;;;;;;;;;4986269;28;20048;-82
2023/04/13 13:17:41;;;;;;;5.80;0.35;;;;;;;;;;4985833;28;20037;-80
2023/04/13 13:20:08;;;;;;;1.52;0.40;;;;;;;;;;4988284;28;20030;-83
2023/04/13 13:22:34;;;;;;;3.08;0.40;;;;;;;;;;5001951;28;20061;-83
2023/04/13 13:25:00;;;;;;;4.78;0.65;;;;;;;;;;4983441;28;20711;-84
2023/04/13 13:27:26;;;;;;;1.38;0.30;;;;;;;;;;4980765;28;20132;-85
2023/04/13 13:29:52;;;;;;;4.45;0.95;;;;;;;;;;4991218;28;20136;-83
2023/04/13 13:32:18;;;;;;;5.07;0.90;;;;;;;;;;4983936;28;20080;-83
2023/04/13 13:34:44;;;;;;;2.40;0.65;;;;;;;;;;4998965;28;20121;-83
2023/04/13 13:37:10;;;;;;;4.13;0.40;;;;;;;;;;5010321;28;20041;-83
2023/04/13 13:39:37;;;;;;;1.35;0.45;;;;;;;;;;4999468;28;20120;-83
2023/04/13 13:42:03;;;;;;;1.60;0.40;;;;;;;;;;5007681;28;20042;-84
2023/04/13 13:44:29;;;;;;;1.90;0.35;;;;;;;;;;4998467;28;20038;-82
2023/04/13 13:46:55;;;;;;;4.53;0.32;;;;;;;;;;4999654;28;20036;-83
2023/04/13 13:49:21;;;;;;;0.95;0.40;;;;;;;;;;4996230;28;20268;-83
2023/04/13 13:51:47;;;;;;;2.78;0.30;;;;;;;;;;5002216;28;20068;-84
2023/04/13 13:54:13;;;;;;;2.42;0.32;;;;;;;;;;5000099;28;20030;-82
2023/04/13 13:56:39;;;;;;;1.25;0.30;;;;;;;;;;5004423;28;20034;-83
2023/04/13 13:59:05;;;;;;;0.90;0.20;;;;;;;;;;4999194;28;20048;-83
2023/04/13 14:01:31;;;;;;;0.63;0.10;;;;;;;;;;4997730;28;20030;-83
2023/04/13 14:03:58;;;;;;;2.28;0.90;;;;;;;;;;5002812;28;20039;-83
2023/04/13 14:06:24;;;;;;;1.80;0.50;;;;;;;;;;5000347;28;20096;-81
2023/04/13 14:08:51;;;;;;;0.98;0.35;;;;;;;;;;4981821;28;20482;-83
2023/04/13 14:11:17;;;;;;;2.05;1.35;;;;;;;;;;4992013;28;20935;-82
2023/04/13 14:13:43;;;;;;;1.75;0.15;;;;;;;;;;5003096;28;20120;-83
2023/04/13 14:16:09;;;;;;;1.10;0.40;;;;;;;;;;4985820;28;22218;-83
2023/04/13 14:18:35;;;;;;;0.93;0.45;;;;;;;;;;4997957;28;20049;-85
2023/04/13 14:21:01;;;;;;;5.15;0.32;;;;;;;;;;5000399;28;20030;-84
2023/04/13 14:23:27;;;;;;;1.40;0.35;;;;;;;;;;5005109;28;20022;-84
2023/04/13 14:25:53;;;;;;;10.18;2.35;;;12.90;99.90;;;;;;5004211;28;20046;-83
2023/04/13 14:28:19;;;;;;;5.82;1.30;;;;;;;;;;4996100;28;20123;-82
2023/04/13 14:30:45;;;;;;;2.72;0.45;;;;;;;;;;4998819;28;20030;-83
2023/04/13 14:33:13;;;;;;;2.13;0.65;;;13.70;99.90;;;;;;4996403;28;20518;-83